sensor_id;sensor_type;location;lat;lon;timestamp;P1;durP1;ratioP1;P2;durP2;ratioP2
20012;SDS011;10167;42.852;23.042;2023-04-06T00:01:35;0.88;;;0.88;;
20012;SDS011;10167;42.852;23.042;2023-04-06T00:04:05;0.93;;;0.85;;
20012;SDS011;10167;42.852;23.042;2023-04-06T00:06:36;1.55;;;1.45;;
20012;SDS011;10167;42.852;23.042;2023-04-06T00:09:05;0.80;;;0.80;;
20012;SDS011;10167;42.852;23.042;2023-04-06T00:11:35;2.30;;;2.10;;
20012;SDS011;10167;42.852;23.042;2023-04-06T00:14:04;0.40;;;0.40;;
20012;SDS011;10167;42.852;23.042;2023-04-06T00:16:33;5.90;;;2.03;;
20012;SDS011;10167;42.852;23.042;2023-04-06T00:19:02;1.00;;;0.93;;
20012;SDS011;10167;42.852;23.042;2023-04-06T00:21:31;1.25;;;1.15;;
20012;SDS011;10167;42.852;23.042;2023-04-06T00:24:02;2.08;;;0.95;;
20012;SDS011;10167;42.852;23.042;2023-04-06T00:26:32;1.15;;;1.10;;
20012;SDS011;10167;42.852;23.042;2023-04-06T00:29:01;2.15;;;1.33;;
20012;SDS011;10167;42.852;23.042;2023-04-06T00:31:30;0.55;;;0.55;;
20012;SDS011;10167;42.852;23.042;2023-04-06T00:34:00;0.45;;;0.45;;
20012;SDS011;10167;42.852;23.042;2023-04-06T00:36:29;0.95;;;0.95;;
20012;SDS011;10167;42.852;23.042;2023-04-06T00:38:58;0.30;;;0.30;;
20012;SDS011;10167;42.852;23.042;2023-04-06T00:41:29;0.60;;;0.60;;
20012;SDS011;10167;42.852;23.042;2023-04-06T00:43:58;1.00;;;0.98;;
20012;SDS011;10167;42.852;23.042;2023-04-06T00:46:28;0.73;;;0.50;;
20012;SDS011;10167;42.852;23.042;2023-04-06T00:48:57;0.88;;;0.88;;
20012;SDS011;10167;42.852;23.042;2023-04-06T00:51:26;0.80;;;0.80;;
20012;SDS011;10167;42.852;23.042;2023-04-06T00:53:55;0.57;;;0.57;;
20012;SDS011;10167;42.852;23.042;2023-04-06T00:56:25;0.73;;;0.65;;
20012;SDS011;10167;42.852;23.042;2023-04-06T00:58:56;1.27;;;1.17;;
20012;SDS011;10167;42.852;23.042;2023-04-06T01:01:25;0.88;;;0.88;;
20012;SDS011;10167;42.852;23.042;2023-04-06T01:04:00;1.27;;;1.17;;
20012;SDS011;10167;42.852;23.042;2023-04-06T01:06:37;1.05;;;0.95;;
20012;SDS011;10167;42.852;23.042;2023-04-06T01:09:07;0.75;;;0.75;;
20012;SDS011;10167;42.852;23.042;2023-04-06T01:11:37;0.20;;;0.20;;
20012;SDS011;10167;42.852;23.042;2023-04-06T01:14:11;0.93;;;0.93;;
20012;SDS011;10167;42.852;23.042;2023-04-06T01:16:52;0.77;;;0.77;;
20012;SDS011;10167;42.852;23.042;2023-04-06T01:19:27;1.65;;;0.77;;
20012;SDS011;10167;42.852;23.042;2023-04-06T01:21:57;0.32;;;0.32;;
20012;SDS011;10167;42.852;23.042;2023-04-06T01:24:31;1.27;;;0.87;;
20012;SDS011;10167;42.852;23.042;2023-04-06T01:27:03;1.95;;;1.85;;
20012;SDS011;10167;42.852;23.042;2023-04-06T01:29:59;1.50;;;1.40;;
20012;SDS011;10167;42.852;23.042;2023-04-06T01:32:41;0.20;;;0.20;;
20012;SDS011;10167;42.852;23.042;2023-04-06T01:35:12;1.35;;;1.05;;
20012;SDS011;10167;42.852;23.042;2023-04-06T01:37:51;0.28;;;0.28;;
20012;SDS011;10167;42.852;23.042;2023-04-06T01:40:29;0.95;;;0.95;;
20012;SDS011;10167;42.852;23.042;2023-04-06T01:42:58;0.43;;;0.43;;
20012;SDS011;10167;42.852;23.042;2023-04-06T01:45:33;0.77;;;0.77;;
20012;SDS011;10167;42.852;23.042;2023-04-06T01:48:13;1.13;;;1.13;;
20012;SDS011;10167;42.852;23.042;2023-04-06T01:50:42;0.93;;;0.93;;
20012;SDS011;10167;42.852;23.042;2023-04-06T01:53:16;2.92;;;2.05;;
20012;SDS011;10167;42.852;23.042;2023-04-06T01:55:48;4.95;;;1.38;;
20012;SDS011;10167;42.852;23.042;2023-04-06T01:58:31;3.05;;;1.80;;
20012;SDS011;10167;42.852;23.042;2023-04-06T02:01:01;1.55;;;1.05;;
20012;SDS011;10167;42.852;23.042;2023-04-06T02:03:42;3.80;;;2.15;;
20012;SDS011;10167;42.852;23.042;2023-04-06T02:06:12;0.35;;;0.35;;
20012;SDS011;10167;42.852;23.042;2023-04-06T02:08:41;0.50;;;0.50;;
20012;SDS011;10167;42.852;23.042;2023-04-06T02:11:12;0.57;;;0.57;;
20012;SDS011;10167;42.852;23.042;2023-04-06T02:13:48;4.05;;;2.35;;
20012;SDS011;10167;42.852;23.042;2023-04-06T02:16:37;0.45;;;0.45;;
20012;SDS011;10167;42.852;23.042;2023-04-06T02:19:07;2.08;;;1.40;;
20012;SDS011;10167;42.852;23.042;2023-04-06T02:21:36;0.40;;;0.40;;
20012;SDS011;10167;42.852;23.042;2023-04-06T02:24:06;1.98;;;1.70;;
20012;SDS011;10167;42.852;23.042;2023-04-06T02:26:36;2.25;;;2.00;;
20012;SDS011;10167;42.852;23.042;2023-04-06T02:29:05;0.52;;;0.52;;
20012;SDS011;10167;42.852;23.042;2023-04-06T02:31:35;0.93;;;0.93;;
20012;SDS011;10167;42.852;23.042;2023-04-06T02:34:06;0.25;;;0.25;;
20012;SDS011;10167;42.852;23.042;2023-04-06T02:36:42;0.63;;;0.63;;
20012;SDS011;10167;42.852;23.042;2023-04-06T02:39:11;0.47;;;0.47;;
20012;SDS011;10167;42.852;23.042;2023-04-06T02:41:42;0.65;;;0.65;;
20012;SDS011;10167;42.852;23.042;2023-04-06T02:44:15;0.60;;;0.60;;
20012;SDS011;10167;42.852;23.042;2023-04-06T02:46:44;1.77;;;1.67;;
20012;SDS011;10167;42.852;23.042;2023-04-06T02:49:13;1.65;;;1.55;;
20012;SDS011;10167;42.852;23.042;2023-04-06T02:51:47;0.50;;;0.50;;
20012;SDS011;10167;42.852;23.042;2023-04-06T02:54:22;0.30;;;0.30;;
20012;SDS011;10167;42.852;23.042;2023-04-06T02:56:53;1.30;;;1.10;;
20012;SDS011;10167;42.852;23.042;2023-04-06T02:59:30;0.38;;;0.38;;
20012;SDS011;10167;42.852;23.042;2023-04-06T03:02:10;0.95;;;0.95;;
20012;SDS011;10167;42.852;23.042;2023-04-06T03:04:39;0.65;;;0.65;;
20012;SDS011;10167;42.852;23.042;2023-04-06T03:07:19;1.10;;;1.05;;
20012;SDS011;10167;42.852;23.042;2023-04-06T03:09:48;0.52;;;0.52;;
20012;SDS011;10167;42.852;23.042;2023-04-06T03:12:19;0.60;;;0.60;;
20012;SDS011;10167;42.852;23.042;2023-04-06T03:15:27;0.38;;;0.38;;
20012;SDS011;10167;42.852;23.042;2023-04-06T03:18:09;4.80;;;0.45;;
20012;SDS011;10167;42.852;23.042;2023-04-06T03:20:43;0.47;;;0.47;;
20012;SDS011;10167;42.852;23.042;2023-04-06T03:23:14;0.30;;;0.30;;
20012;SDS011;10167;42.852;23.042;2023-04-06T03:25:45;2.15;;;1.60;;
20012;SDS011;10167;42.852;23.042;2023-04-06T03:28:19;0.45;;;0.45;;
20012;SDS011;10167;42.852;23.042;2023-04-06T03:30:53;0.20;;;0.20;;
20012;SDS011;10167;42.852;23.042;2023-04-06T03:33:41;0.60;;;0.60;;
20012;SDS011;10167;42.852;23.042;2023-04-06T03:36:16;2.53;;;2.33;;
20012;SDS011;10167;42.852;23.042;2023-04-06T03:38:45;1.48;;;1.38;;
20012;SDS011;10167;42.852;23.042;2023-04-06T03:41:15;1.00;;;0.82;;
20012;SDS011;10167;42.852;23.042;2023-04-06T03:43:57;1.15;;;1.05;;
20012;SDS011;10167;42.852;23.042;2023-04-06T03:46:27;1.13;;;1.13;;
20012;SDS011;10167;42.852;23.042;2023-04-06T03:48:58;1.67;;;0.38;;
20012;SDS011;10167;42.852;23.042;2023-04-06T03:51:28;0.30;;;0.30;;
20012;SDS011;10167;42.852;23.042;2023-04-06T03:53:58;1.70;;;1.60;;
20012;SDS011;10167;42.852;23.042;2023-04-06T03:56:27;0.65;;;0.65;;
20012;SDS011;10167;42.852;23.042;2023-04-06T03:58:58;0.93;;;0.90;;
20012;SDS011;10167;42.852;23.042;2023-04-06T04:01:27;0.55;;;0.55;;
20012;SDS011;10167;42.852;23.042;2023-04-06T04:03:56;0.60;;;0.60;;
20012;SDS011;10167;42.852;23.042;2023-04-06T04:06:26;0.85;;;0.85;;
20012;SDS011;10167;42.852;23.042;2023-04-06T04:08:55;1.42;;;1.38;;
20012;SDS011;10167;42.852;23.042;2023-04-06T04:11:24;0.73;;;0.40;;
20012;SDS011;10167;42.852;23.042;2023-04-06T04:13:58;1.50;;;1.40;;
20012;SDS011;10167;42.852;23.042;2023-04-06T04:16:28;0.80;;;0.70;;
20012;SDS011;10167;42.852;23.042;2023-04-06T04:18:57;1.08;;;1.00;;
20012;SDS011;10167;42.852;23.042;2023-04-06T04:21:29;0.63;;;0.63;;
20012;SDS011;10167;42.852;23.042;2023-04-06T04:24:04;0.93;;;0.90;;
20012;SDS011;10167;42.852;23.042;2023-04-06T04:26:35;0.88;;;0.82;;
20012;SDS011;10167;42.852;23.042;2023-04-06T04:29:07;0.75;;;0.75;;
20012;SDS011;10167;42.852;23.042;2023-04-06T04:31:37;0.50;;;0.50;;
20012;SDS011;10167;42.852;23.042;2023-04-06T04:34:14;1.85;;;1.27;;
20012;SDS011;10167;42.852;23.042;2023-04-06T04:36:44;0.68;;;0.68;;
20012;SDS011;10167;42.852;23.042;2023-04-06T04:39:21;0.70;;;0.50;;
20012;SDS011;10167;42.852;23.042;2023-04-06T04:41:57;0.45;;;0.45;;
20012;SDS011;10167;42.852;23.042;2023-04-06T04:44:30;1.65;;;1.55;;
20012;SDS011;10167;42.852;23.042;2023-04-06T04:47:00;2.72;;;1.50;;
20012;SDS011;10167;42.852;23.042;2023-04-06T04:49:39;3.47;;;1.80;;
20012;SDS011;10167;42.852;23.042;2023-04-06T04:52:10;0.63;;;0.63;;
20012;SDS011;10167;42.852;23.042;2023-04-06T04:54:49;0.70;;;0.70;;
20012;SDS011;10167;42.852;23.042;2023-04-06T04:57:24;0.63;;;0.63;;
20012;SDS011;10167;42.852;23.042;2023-04-06T04:59:54;0.47;;;0.47;;
20012;SDS011;10167;42.852;23.042;2023-04-06T05:02:24;2.55;;;2.35;;
20012;SDS011;10167;42.852;23.042;2023-04-06T05:05:16;0.98;;;0.73;;
20012;SDS011;10167;42.852;23.042;2023-04-06T05:07:46;1.70;;;1.58;;
20012;SDS011;10167;42.852;23.042;2023-04-06T05:10:25;1.50;;;1.40;;
20012;SDS011;10167;42.852;23.042;2023-04-06T05:12:59;2.00;;;1.17;;
20012;SDS011;10167;42.852;23.042;2023-04-06T05:15:29;1.42;;;1.33;;
20012;SDS011;10167;42.852;23.042;2023-04-06T05:18:06;1.75;;;0.52;;
20012;SDS011;10167;42.852;23.042;2023-04-06T05:20:35;1.23;;;1.20;;
20012;SDS011;10167;42.852;23.042;2023-04-06T05:23:06;1.45;;;1.25;;
20012;SDS011;10167;42.852;23.042;2023-04-06T05:25:36;0.50;;;0.50;;
20012;SDS011;10167;42.852;23.042;2023-04-06T05:28:14;1.52;;;1.42;;
20012;SDS011;10167;42.852;23.042;2023-04-06T05:30:45;1.98;;;1.42;;
20012;SDS011;10167;42.852;23.042;2023-04-06T05:33:15;0.57;;;0.57;;
20012;SDS011;10167;42.852;23.042;2023-04-06T05:36:05;0.52;;;0.52;;
20012;SDS011;10167;42.852;23.042;2023-04-06T05:38:39;0.93;;;0.93;;
20012;SDS011;10167;42.852;23.042;2023-04-06T05:41:35;1.35;;;1.20;;
20012;SDS011;10167;42.852;23.042;2023-04-06T05:44:06;0.90;;;0.90;;
20012;SDS011;10167;42.852;23.042;2023-04-06T05:46:37;1.65;;;1.55;;
20012;SDS011;10167;42.852;23.042;2023-04-06T05:49:10;0.68;;;0.65;;
20012;SDS011;10167;42.852;23.042;2023-04-06T05:51:39;2.38;;;1.75;;
20012;SDS011;10167;42.852;23.042;2023-04-06T05:54:09;1.17;;;1.10;;
20012;SDS011;10167;42.852;23.042;2023-04-06T05:56:39;4.32;;;2.42;;
20012;SDS011;10167;42.852;23.042;2023-04-06T05:59:11;1.48;;;1.38;;
20012;SDS011;10167;42.852;23.042;2023-04-06T06:01:42;3.03;;;1.98;;
20012;SDS011;10167;42.852;23.042;2023-04-06T06:04:12;2.47;;;1.42;;
20012;SDS011;10167;42.852;23.042;2023-04-06T06:06:43;1.63;;;1.42;;
20012;SDS011;10167;42.852;23.042;2023-04-06T06:09:36;1.55;;;1.10;;
20012;SDS011;10167;42.852;23.042;2023-04-06T06:12:29;2.33;;;2.15;;
20012;SDS011;10167;42.852;23.042;2023-04-06T06:14:59;2.28;;;1.45;;
20012;SDS011;10167;42.852;23.042;2023-04-06T06:17:34;1.73;;;1.63;;
20012;SDS011;10167;42.852;23.042;2023-04-06T06:20:05;3.33;;;1.27;;
20012;SDS011;10167;42.852;23.042;2023-04-06T06:22:36;1.85;;;1.75;;
20012;SDS011;10167;42.852;23.042;2023-04-06T06:25:11;2.08;;;1.33;;
20012;SDS011;10167;42.852;23.042;2023-04-06T06:27:40;3.13;;;1.65;;
20012;SDS011;10167;42.852;23.042;2023-04-06T06:30:10;2.50;;;2.30;;
20012;SDS011;10167;42.852;23.042;2023-04-06T06:32:42;1.85;;;1.75;;
20012;SDS011;10167;42.852;23.042;2023-04-06T06:35:12;4.32;;;2.88;;
20012;SDS011;10167;42.852;23.042;2023-04-06T06:37:41;4.15;;;3.88;;
20012;SDS011;10167;42.852;23.042;2023-04-06T06:40:13;1.20;;;1.20;;
20012;SDS011;10167;42.852;23.042;2023-04-06T06:42:47;3.70;;;2.85;;
20012;SDS011;10167;42.852;23.042;2023-04-06T06:45:31;2.65;;;2.53;;
20012;SDS011;10167;42.852;23.042;2023-04-06T06:48:02;2.20;;;1.88;;
20012;SDS011;10167;42.852;23.042;2023-04-06T06:50:31;1.38;;;0.90;;
20012;SDS011;10167;42.852;23.042;2023-04-06T06:53:00;1.35;;;1.25;;
20012;SDS011;10167;42.852;23.042;2023-04-06T06:55:30;1.23;;;1.13;;
20012;SDS011;10167;42.852;23.042;2023-04-06T06:57:59;0.63;;;0.63;;
20012;SDS011;10167;42.852;23.042;2023-04-06T07:00:28;1.40;;;1.30;;
20012;SDS011;10167;42.852;23.042;2023-04-06T07:02:58;4.25;;;3.15;;
20012;SDS011;10167;42.852;23.042;2023-04-06T07:05:28;5.88;;;1.17;;
20012;SDS011;10167;42.852;23.042;2023-04-06T07:07:58;2.38;;;2.17;;
20012;SDS011;10167;42.852;23.042;2023-04-06T07:10:27;0.50;;;0.50;;
20012;SDS011;10167;42.852;23.042;2023-04-06T07:12:57;1.33;;;1.23;;
20012;SDS011;10167;42.852;23.042;2023-04-06T07:15:27;1.42;;;1.33;;
20012;SDS011;10167;42.852;23.042;2023-04-06T07:17:57;0.22;;;0.22;;
20012;SDS011;10167;42.852;23.042;2023-04-06T07:20:26;1.33;;;1.23;;
20012;SDS011;10167;42.852;23.042;2023-04-06T07:22:57;0.73;;;0.73;;
20012;SDS011;10167;42.852;23.042;2023-04-06T07:25:26;0.45;;;0.45;;
20012;SDS011;10167;42.852;23.042;2023-04-06T07:27:56;0.90;;;0.85;;
20012;SDS011;10167;42.852;23.042;2023-04-06T07:30:25;2.63;;;1.83;;
20012;SDS011;10167;42.852;23.042;2023-04-06T07:32:59;2.05;;;1.90;;
20012;SDS011;10167;42.852;23.042;2023-04-06T07:35:30;1.13;;;1.13;;
20012;SDS011;10167;42.852;23.042;2023-04-06T07:37:59;0.40;;;0.40;;
20012;SDS011;10167;42.852;23.042;2023-04-06T07:40:30;3.05;;;2.85;;
20012;SDS011;10167;42.852;23.042;2023-04-06T07:43:00;2.20;;;2.00;;
20012;SDS011;10167;42.852;23.042;2023-04-06T07:45:30;1.15;;;1.15;;
20012;SDS011;10167;42.852;23.042;2023-04-06T07:48:01;2.25;;;1.42;;
20012;SDS011;10167;42.852;23.042;2023-04-06T07:50:33;1.85;;;1.75;;
20012;SDS011;10167;42.852;23.042;2023-04-06T07:53:03;0.22;;;0.22;;
20012;SDS011;10167;42.852;23.042;2023-04-06T07:55:32;2.15;;;2.00;;
20012;SDS011;10167;42.852;23.042;2023-04-06T07:58:01;2.88;;;1.85;;
20012;SDS011;10167;42.852;23.042;2023-04-06T08:00:33;0.28;;;0.28;;
20012;SDS011;10167;42.852;23.042;2023-04-06T08:03:02;0.57;;;0.57;;
20012;SDS011;10167;42.852;23.042;2023-04-06T08:05:35;2.00;;;1.80;;
20012;SDS011;10167;42.852;23.042;2023-04-06T08:08:04;0.73;;;0.73;;
20012;SDS011;10167;42.852;23.042;2023-04-06T08:10:33;1.40;;;1.30;;
20012;SDS011;10167;42.852;23.042;2023-04-06T08:13:02;2.30;;;2.15;;
20012;SDS011;10167;42.852;23.042;2023-04-06T08:15:31;0.98;;;0.95;;
20012;SDS011;10167;42.852;23.042;2023-04-06T08:18:00;1.85;;;1.75;;
20012;SDS011;10167;42.852;23.042;2023-04-06T08:20:29;1.10;;;0.98;;
20012;SDS011;10167;42.852;23.042;2023-04-06T08:23:00;1.00;;;1.00;;
20012;SDS011;10167;42.852;23.042;2023-04-06T08:25:29;1.23;;;1.23;;
20012;SDS011;10167;42.852;23.042;2023-04-06T08:27:58;0.77;;;0.77;;
20012;SDS011;10167;42.852;23.042;2023-04-06T08:30:27;2.53;;;1.63;;
20012;SDS011;10167;42.852;23.042;2023-04-06T08:32:57;10.02;;;1.67;;
20012;SDS011;10167;42.852;23.042;2023-04-06T08:35:26;1.50;;;1.40;;
20012;SDS011;10167;42.852;23.042;2023-04-06T08:37:56;0.65;;;0.65;;
20012;SDS011;10167;42.852;23.042;2023-04-06T08:40:27;2.42;;;1.55;;
20012;SDS011;10167;42.852;23.042;2023-04-06T08:42:56;0.63;;;0.63;;
20012;SDS011;10167;42.852;23.042;2023-04-06T08:45:30;1.27;;;0.93;;
20012;SDS011;10167;42.852;23.042;2023-04-06T08:48:00;1.17;;;1.15;;
20012;SDS011;10167;42.852;23.042;2023-04-06T08:50:30;1.05;;;0.68;;
20012;SDS011;10167;42.852;23.042;2023-04-06T08:53:01;0.88;;;0.88;;
20012;SDS011;10167;42.852;23.042;2023-04-06T08:55:32;0.82;;;0.82;;
20012;SDS011;10167;42.852;23.042;2023-04-06T08:58:02;1.27;;;1.17;;
20012;SDS011;10167;42.852;23.042;2023-04-06T09:00:32;0.82;;;0.82;;
20012;SDS011;10167;42.852;23.042;2023-04-06T09:03:06;5.93;;;2.97;;
20012;SDS011;10167;42.852;23.042;2023-04-06T09:05:37;4.72;;;2.20;;
20012;SDS011;10167;42.852;23.042;2023-04-06T09:08:08;0.70;;;0.70;;
20012;SDS011;10167;42.852;23.042;2023-04-06T09:10:40;0.70;;;0.70;;
20012;SDS011;10167;42.852;23.042;2023-04-06T09:13:09;2.40;;;1.55;;
20012;SDS011;10167;42.852;23.042;2023-04-06T09:15:38;0.40;;;0.40;;
20012;SDS011;10167;42.852;23.042;2023-04-06T09:18:08;0.90;;;0.90;;
20012;SDS011;10167;42.852;23.042;2023-04-06T09:20:37;0.40;;;0.40;;
20012;SDS011;10167;42.852;23.042;2023-04-06T09:23:07;1.98;;;1.88;;
20012;SDS011;10167;42.852;23.042;2023-04-06T09:25:48;1.25;;;1.20;;
20012;SDS011;10167;42.852;23.042;2023-04-06T09:28:17;0.45;;;0.45;;
20012;SDS011;10167;42.852;23.042;2023-04-06T09:30:47;1.25;;;1.17;;
20012;SDS011;10167;42.852;23.042;2023-04-06T09:33:23;9.43;;;1.40;;
20012;SDS011;10167;42.852;23.042;2023-04-06T09:35:52;0.70;;;0.68;;
20012;SDS011;10167;42.852;23.042;2023-04-06T09:38:21;1.35;;;1.25;;
20012;SDS011;10167;42.852;23.042;2023-04-06T09:40:52;0.77;;;0.77;;
20012;SDS011;10167;42.852;23.042;2023-04-06T09:43:27;4.43;;;1.08;;
20012;SDS011;10167;42.852;23.042;2023-04-06T09:45:57;2.40;;;1.35;;
20012;SDS011;10167;42.852;23.042;2023-04-06T09:48:31;1.17;;;1.08;;
20012;SDS011;10167;42.852;23.042;2023-04-06T09:51:04;0.82;;;0.82;;
20012;SDS011;10167;42.852;23.042;2023-04-06T09:53:35;3.20;;;1.25;;
20012;SDS011;10167;42.852;23.042;2023-04-06T09:56:10;4.53;;;1.10;;
20012;SDS011;10167;42.852;23.042;2023-04-06T09:58:41;3.20;;;2.50;;
20012;SDS011;10167;42.852;23.042;2023-04-06T10:01:15;0.90;;;0.90;;
20012;SDS011;10167;42.852;23.042;2023-04-06T10:03:52;1.17;;;0.90;;
20012;SDS011;10167;42.852;23.042;2023-04-06T10:06:28;6.30;;;1.65;;
20012;SDS011;10167;42.852;23.042;2023-04-06T10:09:02;2.65;;;1.25;;
20012;SDS011;10167;42.852;23.042;2023-04-06T10:11:36;2.53;;;1.73;;
20012;SDS011;10167;42.852;23.042;2023-04-06T10:14:06;0.85;;;0.85;;
20012;SDS011;10167;42.852;23.042;2023-04-06T10:16:36;0.47;;;0.47;;
20012;SDS011;10167;42.852;23.042;2023-04-06T10:19:06;0.93;;;0.88;;
20012;SDS011;10167;42.852;23.042;2023-04-06T10:21:41;0.75;;;0.75;;
20012;SDS011;10167;42.852;23.042;2023-04-06T10:24:14;0.60;;;0.60;;
20012;SDS011;10167;42.852;23.042;2023-04-06T10:26:56;1.45;;;1.40;;
20012;SDS011;10167;42.852;23.042;2023-04-06T10:29:26;3.80;;;1.75;;
20012;SDS011;10167;42.852;23.042;2023-04-06T10:31:55;0.50;;;0.50;;
20012;SDS011;10167;42.852;23.042;2023-04-06T10:34:33;1.98;;;0.85;;
20012;SDS011;10167;42.852;23.042;2023-04-06T10:37:10;1.10;;;1.08;;
20012;SDS011;10167;42.852;23.042;2023-04-06T10:39:47;2.58;;;1.20;;
20012;SDS011;10167;42.852;23.042;2023-04-06T10:42:25;0.75;;;0.75;;
20012;SDS011;10167;42.852;23.042;2023-04-06T10:45:05;2.35;;;1.23;;
20012;SDS011;10167;42.852;23.042;2023-04-06T10:47:38;0.90;;;0.65;;
20012;SDS011;10167;42.852;23.042;2023-04-06T10:50:08;1.52;;;1.05;;
20012;SDS011;10167;42.852;23.042;2023-04-06T10:52:43;0.85;;;0.55;;
20012;SDS011;10167;42.852;23.042;2023-04-06T10:55:14;10.93;;;2.90;;
20012;SDS011;10167;42.852;23.042;2023-04-06T10:57:47;0.85;;;0.85;;
20012;SDS011;10167;42.852;23.042;2023-04-06T11:00:16;1.00;;;0.45;;
20012;SDS011;10167;42.852;23.042;2023-04-06T11:02:47;0.32;;;0.32;;
20012;SDS011;10167;42.852;23.042;2023-04-06T11:05:16;1.15;;;1.10;;
20012;SDS011;10167;42.852;23.042;2023-04-06T11:07:45;2.63;;;2.30;;
20012;SDS011;10167;42.852;23.042;2023-04-06T11:10:20;0.88;;;0.88;;
20012;SDS011;10167;42.852;23.042;2023-04-06T11:12:55;0.70;;;0.70;;
20012;SDS011;10167;42.852;23.042;2023-04-06T11:15:25;5.57;;;1.08;;
20012;SDS011;10167;42.852;23.042;2023-04-06T11:17:54;0.73;;;0.73;;
20012;SDS011;10167;42.852;23.042;2023-04-06T11:20:23;1.08;;;1.08;;
20012;SDS011;10167;42.852;23.042;2023-04-06T11:22:52;1.02;;;0.90;;
20012;SDS011;10167;42.852;23.042;2023-04-06T11:25:22;0.93;;;0.93;;
20012;SDS011;10167;42.852;23.042;2023-04-06T11:27:52;0.45;;;0.45;;
20012;SDS011;10167;42.852;23.042;2023-04-06T11:30:24;1.30;;;1.15;;
20012;SDS011;10167;42.852;23.042;2023-04-06T11:32:59;1.02;;;1.02;;
20012;SDS011;10167;42.852;23.042;2023-04-06T11:35:30;0.43;;;0.43;;
20012;SDS011;10167;42.852;23.042;2023-04-06T11:38:02;1.75;;;0.60;;
20012;SDS011;10167;42.852;23.042;2023-04-06T11:40:32;0.22;;;0.22;;
20012;SDS011;10167;42.852;23.042;2023-04-06T11:43:01;0.75;;;0.75;;
20012;SDS011;10167;42.852;23.042;2023-04-06T11:45:41;1.17;;;0.75;;
20012;SDS011;10167;42.852;23.042;2023-04-06T11:48:18;0.85;;;0.85;;
20012;SDS011;10167;42.852;23.042;2023-04-06T11:50:55;0.38;;;0.38;;
20012;SDS011;10167;42.852;23.042;2023-04-06T11:53:25;0.52;;;0.52;;
20012;SDS011;10167;42.852;23.042;2023-04-06T11:55:57;0.50;;;0.50;;
20012;SDS011;10167;42.852;23.042;2023-04-06T11:58:27;1.15;;;0.82;;
20012;SDS011;10167;42.852;23.042;2023-04-06T12:01:04;1.33;;;1.20;;
20012;SDS011;10167;42.852;23.042;2023-04-06T12:03:33;1.27;;;1.27;;
20012;SDS011;10167;42.852;23.042;2023-04-06T12:06:02;0.98;;;0.98;;
20012;SDS011;10167;42.852;23.042;2023-04-06T12:08:32;1.55;;;0.40;;
20012;SDS011;10167;42.852;23.042;2023-04-06T12:11:02;1.55;;;0.65;;
20012;SDS011;10167;42.852;23.042;2023-04-06T12:13:32;0.70;;;0.70;;
20012;SDS011;10167;42.852;23.042;2023-04-06T12:16:01;0.52;;;0.50;;
20012;SDS011;10167;42.852;23.042;2023-04-06T12:18:32;2.30;;;1.45;;
20012;SDS011;10167;42.852;23.042;2023-04-06T12:21:01;2.25;;;0.95;;
20012;SDS011;10167;42.852;23.042;2023-04-06T12:23:30;0.75;;;0.70;;
20012;SDS011;10167;42.852;23.042;2023-04-06T12:25:59;2.38;;;2.17;;
20012;SDS011;10167;42.852;23.042;2023-04-06T12:28:29;1.27;;;0.85;;
20012;SDS011;10167;42.852;23.042;2023-04-06T12:30:58;1.85;;;1.75;;
20012;SDS011;10167;42.852;23.042;2023-04-06T12:33:28;9.80;;;1.27;;
20012;SDS011;10167;42.852;23.042;2023-04-06T12:35:59;0.50;;;0.50;;
20012;SDS011;10167;42.852;23.042;2023-04-06T12:38:28;7.00;;;1.83;;
20012;SDS011;10167;42.852;23.042;2023-04-06T12:40:57;0.38;;;0.38;;
20012;SDS011;10167;42.852;23.042;2023-04-06T12:43:26;1.40;;;1.30;;
20012;SDS011;10167;42.852;23.042;2023-04-06T12:45:55;1.33;;;1.23;;
20012;SDS011;10167;42.852;23.042;2023-04-06T12:48:25;7.70;;;1.08;;
20012;SDS011;10167;42.852;23.042;2023-04-06T12:50:54;0.98;;;0.77;;
20012;SDS011;10167;42.852;23.042;2023-04-06T12:53:26;2.38;;;1.27;;
20012;SDS011;10167;42.852;23.042;2023-04-06T12:55:56;3.85;;;2.40;;
20012;SDS011;10167;42.852;23.042;2023-04-06T12:58:26;0.95;;;0.95;;
20012;SDS011;10167;42.852;23.042;2023-04-06T13:00:55;1.70;;;1.60;;
20012;SDS011;10167;42.852;23.042;2023-04-06T13:03:30;2.47;;;0.65;;
20012;SDS011;10167;42.852;23.042;2023-04-06T13:05:59;4.07;;;2.63;;
20012;SDS011;10167;42.852;23.042;2023-04-06T13:08:30;1.10;;;1.02;;
20012;SDS011;10167;42.852;23.042;2023-04-06T13:11:00;1.40;;;0.82;;
20012;SDS011;10167;42.852;23.042;2023-04-06T13:13:29;1.25;;;1.15;;
20012;SDS011;10167;42.852;23.042;2023-04-06T13:15:59;0.52;;;0.52;;
20012;SDS011;10167;42.852;23.042;2023-04-06T13:18:29;1.27;;;1.13;;
20012;SDS011;10167;42.852;23.042;2023-04-06T13:20:59;0.68;;;0.68;;
20012;SDS011;10167;42.852;23.042;2023-04-06T13:23:29;1.05;;;0.95;;
20012;SDS011;10167;42.852;23.042;2023-04-06T13:26:00;0.93;;;0.80;;
20012;SDS011;10167;42.852;23.042;2023-04-06T13:28:30;1.38;;;1.27;;
20012;SDS011;10167;42.852;23.042;2023-04-06T13:31:00;5.38;;;2.13;;
20012;SDS011;10167;42.852;23.042;2023-04-06T13:33:30;6.78;;;3.85;;
20012;SDS011;10167;42.852;23.042;2023-04-06T13:36:00;6.07;;;1.98;;
20012;SDS011;10167;42.852;23.042;2023-04-06T13:38:31;16.58;;;8.52;;
20012;SDS011;10167;42.852;23.042;2023-04-06T13:41:00;8.05;;;6.25;;
20012;SDS011;10167;42.852;23.042;2023-04-06T13:43:30;35.13;;;13.52;;
20012;SDS011;10167;42.852;23.042;2023-04-06T13:45:59;10.88;;;6.32;;
20012;SDS011;10167;42.852;23.042;2023-04-06T13:48:28;23.20;;;8.88;;
20012;SDS011;10167;42.852;23.042;2023-04-06T13:50:57;37.80;;;8.73;;
20012;SDS011;10167;42.852;23.042;2023-04-06T13:53:37;30.20;;;9.05;;
20012;SDS011;10167;42.852;23.042;2023-04-06T13:56:07;5.25;;;2.95;;
20012;SDS011;10167;42.852;23.042;2023-04-06T13:58:37;5.93;;;2.90;;
20012;SDS011;10167;42.852;23.042;2023-04-06T14:01:06;7.65;;;4.80;;
20012;SDS011;10167;42.852;23.042;2023-04-06T14:03:37;9.48;;;6.15;;
20012;SDS011;10167;42.852;23.042;2023-04-06T14:06:10;14.30;;;3.88;;
20012;SDS011;10167;42.852;23.042;2023-04-06T14:08:44;3.97;;;3.45;;
20012;SDS011;10167;42.852;23.042;2023-04-06T14:11:14;2.10;;;1.98;;
20012;SDS011;10167;42.852;23.042;2023-04-06T14:13:43;3.90;;;3.13;;
20012;SDS011;10167;42.852;23.042;2023-04-06T14:16:12;6.20;;;4.13;;
20012;SDS011;10167;42.852;23.042;2023-04-06T14:18:42;1.20;;;1.17;;
20012;SDS011;10167;42.852;23.042;2023-04-06T14:21:11;2.03;;;1.90;;
20012;SDS011;10167;42.852;23.042;2023-04-06T14:23:40;5.10;;;1.85;;
20012;SDS011;10167;42.852;23.042;2023-04-06T14:26:11;4.78;;;2.40;;
20012;SDS011;10167;42.852;23.042;2023-04-06T14:28:41;1.60;;;1.50;;
20012;SDS011;10167;42.852;23.042;2023-04-06T14:31:10;2.13;;;1.80;;
20012;SDS011;10167;42.852;23.042;2023-04-06T14:33:42;1.83;;;1.73;;
20012;SDS011;10167;42.852;23.042;2023-04-06T14:36:11;1.67;;;1.48;;
20012;SDS011;10167;42.852;23.042;2023-04-06T14:38:41;5.30;;;1.25;;
20012;SDS011;10167;42.852;23.042;2023-04-06T14:41:16;1.63;;;1.52;;
20012;SDS011;10167;42.852;23.042;2023-04-06T14:43:46;1.45;;;1.38;;
20012;SDS011;10167;42.852;23.042;2023-04-06T14:46:15;1.05;;;1.05;;
20012;SDS011;10167;42.852;23.042;2023-04-06T14:48:45;1.52;;;1.42;;
20012;SDS011;10167;42.852;23.042;2023-04-06T14:51:14;2.90;;;1.63;;
20012;SDS011;10167;42.852;23.042;2023-04-06T14:53:44;5.05;;;2.83;;
20012;SDS011;10167;42.852;23.042;2023-04-06T14:56:19;0.50;;;0.50;;
20012;SDS011;10167;42.852;23.042;2023-04-06T14:58:49;1.92;;;1.75;;
20012;SDS011;10167;42.852;23.042;2023-04-06T15:01:19;0.85;;;0.75;;